Terminal Aerodrome Forecast
Issued by NWS Indianapolis, IN

Home | Current Version | Previous Version | Text Only | Print | Product List | Glossary On
Versions: 1 2 3 4 5 6 7 8 9 10 11 12 13 14 15 16 17 18 19 20 21 22 23 24 25
000
FTUS43 KIND 270924 AAB
TAFIND
TAF AMD
KIND 270924Z 2709/2812 17008KT P6SM VCSH SCT050 BKN180
     FM271100 18008KT P6SM SCT015 BKN180
     FM271800 19010G18KT P6SM SCT050 BKN150
     FM280000 17007KT P6SM BKN120=

USA.gov is the U.S. government's official web portal to all federal, state and local government web resources and services.